createdAt,value
2023-03-31T00:01:52.977Z,11.96
2023-03-31T00:04:23.938Z,11.92
2023-03-31T00:06:54.362Z,11.80
2023-03-31T00:09:22.084Z,11.94
2023-03-31T00:11:49.659Z,11.94
2023-03-31T00:14:18.011Z,12.20
2023-03-31T00:16:45.614Z,12.59
2023-03-31T00:19:18.181Z,12.35
2023-03-31T00:21:45.790Z,12.22
2023-03-31T00:24:13.258Z,12.08
2023-03-31T00:26:39.904Z,12.04
2023-03-31T00:29:08.229Z,11.99
2023-03-31T00:31:36.020Z,12.00
2023-03-31T00:34:02.658Z,11.89
2023-03-31T00:36:29.130Z,11.89
2023-03-31T00:39:09.244Z,11.83
2023-03-31T00:41:39.035Z,11.74
2023-03-31T00:44:12.922Z,11.53
2023-03-31T00:46:52.217Z,11.52
2023-03-31T00:49:41.132Z,11.37
2023-03-31T00:52:30.946Z,11.65
2023-03-31T00:55:02.078Z,11.27
2023-03-31T00:57:32.473Z,11.28
2023-03-31T01:00:10.532Z,11.22
2023-03-31T01:02:41.415Z,11.25
2023-03-31T01:05:08.966Z,11.21
2023-03-31T01:07:43.204Z,11.19
2023-03-31T01:10:10.180Z,11.18
2023-03-31T01:12:47.232Z,11.11
2023-03-31T01:15:14.150Z,11.04
2023-03-31T01:17:44.805Z,10.94
2023-03-31T01:20:52.874Z,11.01
2023-03-31T01:23:19.211Z,11.00
2023-03-31T01:26:28.952Z,10.98
2023-03-31T01:29:04.036Z,11.00
2023-03-31T01:32:01.799Z,10.97
2023-03-31T01:35:05.553Z,10.96
2023-03-31T01:37:50.251Z,10.84
2023-03-31T01:40:22.471Z,10.76
2023-03-31T01:42:57.548Z,10.83
2023-03-31T01:45:53.729Z,10.82
2023-03-31T01:48:39.225Z,10.89
2023-03-31T01:51:22.177Z,10.89
2023-03-31T01:54:13.154Z,10.93
2023-03-31T01:56:46.467Z,10.97
2023-03-31T01:59:34.424Z,11.10
2023-03-31T02:02:14.227Z,11.23
2023-03-31T02:04:46.755Z,11.38
2023-03-31T02:07:18.960Z,11.37
2023-03-31T02:09:51.676Z,11.59
2023-03-31T02:12:21.875Z,11.70
2023-03-31T02:14:54.549Z,11.79
2023-03-31T02:17:32.599Z,11.86
2023-03-31T02:20:05.685Z,11.80
2023-03-31T02:22:37.508Z,11.90
2023-03-31T02:25:07.344Z,11.94
2023-03-31T02:27:43.031Z,11.95
2023-03-31T02:30:16.699Z,11.92
2023-03-31T02:32:46.602Z,11.91
2023-03-31T02:35:19.231Z,12.01
2023-03-31T02:37:46.791Z,12.04
2023-03-31T02:40:18.603Z,11.94
2023-03-31T02:42:45.217Z,12.02
2023-03-31T02:45:49.784Z,11.93
2023-03-31T02:48:29.733Z,11.82
2023-03-31T02:51:07.435Z,11.85
2023-03-31T02:53:52.723Z,11.83
2023-03-31T02:56:39.646Z,11.86
2023-03-31T02:59:33.259Z,11.89
2023-03-31T03:02:30.402Z,11.85
2023-03-31T03:04:59.948Z,11.91
2023-03-31T03:07:46.771Z,11.89
2023-03-31T03:10:58.495Z,12.05
2023-03-31T03:13:47.861Z,11.89
2023-03-31T03:16:27.696Z,12.04
2023-03-31T03:18:59.591Z,12.09
2023-03-31T03:21:26.537Z,12.05
2023-03-31T03:23:53.161Z,12.03
2023-03-31T03:26:28.134Z,12.05
2023-03-31T03:28:57.679Z,11.99
2023-03-31T03:31:25.908Z,11.96
2023-03-31T03:33:53.157Z,12.03
2023-03-31T03:36:19.945Z,12.02
2023-03-31T03:38:46.516Z,11.95
2023-03-31T03:41:12.882Z,11.86
2023-03-31T03:43:39.199Z,11.86
2023-03-31T03:46:05.918Z,11.72
2023-03-31T03:48:32.560Z,11.59
2023-03-31T03:51:02.097Z,11.68
2023-03-31T03:53:28.930Z,11.52
2023-03-31T03:55:55.464Z,11.61
2023-03-31T03:58:21.877Z,11.60
2023-03-31T04:00:48.311Z,11.50
2023-03-31T04:03:15.029Z,11.48
2023-03-31T04:05:41.691Z,11.56
2023-03-31T04:08:08.771Z,11.55
2023-03-31T04:10:36.239Z,11.64
2023-03-31T04:13:02.990Z,11.54
2023-03-31T04:15:29.559Z,11.48
2023-03-31T04:17:57.878Z,11.45
2023-03-31T04:20:27.761Z,11.41
2023-03-31T04:22:54.777Z,11.56
2023-03-31T04:25:22.661Z,11.55
2023-03-31T04:27:54.548Z,11.93
2023-03-31T04:30:30.961Z,11.88
2023-03-31T04:33:00.601Z,11.86
2023-03-31T04:35:42.682Z,11.82
2023-03-31T04:38:09.918Z,11.70
2023-03-31T04:40:36.285Z,11.71
2023-03-31T04:43:02.686Z,11.74
2023-03-31T04:45:29.081Z,11.82
2023-03-31T04:47:55.510Z,11.80
2023-03-31T04:50:22.016Z,11.82
2023-03-31T04:52:48.748Z,11.68
2023-03-31T04:55:15.592Z,11.70
2023-03-31T04:57:42.072Z,11.72
2023-03-31T05:00:09.109Z,11.60
2023-03-31T05:02:35.622Z,11.64
2023-03-31T05:05:02.096Z,11.73
2023-03-31T05:07:28.520Z,11.72
2023-03-31T05:09:54.975Z,11.65
2023-03-31T05:12:21.549Z,11.54
2023-03-31T05:14:47.989Z,11.40
2023-03-31T05:17:14.404Z,11.46
2023-03-31T05:19:40.831Z,11.45
2023-03-31T05:22:07.177Z,11.35
2023-03-31T05:24:33.639Z,11.33
2023-03-31T05:27:00.133Z,11.18
2023-03-31T05:29:26.746Z,11.24
2023-03-31T05:31:53.809Z,11.13
2023-03-31T05:34:20.501Z,11.15
2023-03-31T05:36:48.182Z,11.04
2023-03-31T05:39:14.572Z,11.10
2023-03-31T05:41:41.102Z,10.90
2023-03-31T05:44:07.492Z,10.98
2023-03-31T05:46:33.934Z,11.09
2023-03-31T05:49:00.573Z,11.12
2023-03-31T05:51:26.920Z,10.94
2023-03-31T05:53:53.332Z,10.93
2023-03-31T05:56:19.842Z,10.71
2023-03-31T05:58:46.312Z,10.77
2023-03-31T06:01:19.705Z,10.67
2023-03-31T06:03:46.784Z,10.72
2023-03-31T06:06:14.851Z,10.71
2023-03-31T06:08:41.476Z,10.74
2023-03-31T06:11:10.957Z,10.94
2023-03-31T06:13:38.649Z,10.98
2023-03-31T06:16:06.219Z,10.97
2023-03-31T06:18:35.527Z,11.07
2023-03-31T06:21:02.489Z,11.30
2023-03-31T06:23:29.072Z,11.26
2023-03-31T06:26:02.276Z,11.25
2023-03-31T06:28:28.931Z,11.40
2023-03-31T06:31:06.142Z,11.48
2023-03-31T06:33:33.917Z,11.52
2023-03-31T06:36:01.732Z,11.59
2023-03-31T06:38:28.459Z,11.66
2023-03-31T06:40:54.987Z,11.61
2023-03-31T06:43:21.504Z,11.71
2023-03-31T06:45:48.537Z,11.67
2023-03-31T06:48:15.449Z,11.57
2023-03-31T06:50:42.327Z,11.74
2023-03-31T06:53:09.453Z,11.90
2023-03-31T06:55:36.961Z,12.01
2023-03-31T06:58:04.314Z,11.69
2023-03-31T07:00:31.858Z,11.88
2023-03-31T07:02:58.959Z,11.80
2023-03-31T07:05:28.774Z,11.69
2023-03-31T07:07:56.474Z,11.71
2023-03-31T07:10:24.513Z,11.65
2023-03-31T07:12:50.977Z,11.53
2023-03-31T07:15:17.691Z,11.55
2023-03-31T07:17:44.588Z,11.60
2023-03-31T07:20:14.874Z,11.67
2023-03-31T07:22:42.090Z,11.72
2023-03-31T07:25:09.928Z,11.74
2023-03-31T07:27:36.660Z,11.89
2023-03-31T07:30:12.659Z,11.86
2023-03-31T07:32:41.143Z,11.83
2023-03-31T07:35:09.085Z,11.84
2023-03-31T07:37:39.811Z,11.90
2023-03-31T07:40:07.730Z,12.07
2023-03-31T07:42:35.517Z,12.13
2023-03-31T07:45:03.064Z,12.20
2023-03-31T07:47:29.611Z,12.35
2023-03-31T07:49:56.025Z,12.29
2023-03-31T07:52:23.454Z,12.45
2023-03-31T07:54:50.626Z,12.44
2023-03-31T07:57:19.385Z,12.55
2023-03-31T07:59:46.914Z,12.69
2023-03-31T08:02:15.808Z,12.59
2023-03-31T08:04:42.897Z,12.63
2023-03-31T08:07:11.486Z,12.44
2023-03-31T08:09:38.120Z,12.47
2023-03-31T08:12:05.643Z,12.38
2023-03-31T08:14:40.719Z,12.35
2023-03-31T08:17:08.173Z,12.60
2023-03-31T08:19:34.556Z,12.52
2023-03-31T08:22:00.952Z,12.56
2023-03-31T08:24:27.349Z,12.87
2023-03-31T08:26:53.944Z,12.62
2023-03-31T08:29:20.461Z,12.90
2023-03-31T08:31:46.918Z,13.05
2023-03-31T08:34:13.407Z,13.03
2023-03-31T08:36:39.844Z,13.24
2023-03-31T08:39:06.563Z,13.44
2023-03-31T08:41:42.401Z,13.67
2023-03-31T08:44:15.671Z,13.76
2023-03-31T08:46:43.270Z,13.66
2023-03-31T08:49:16.461Z,13.62
2023-03-31T08:52:04.783Z,13.50
2023-03-31T08:54:33.323Z,13.47
2023-03-31T08:57:03.538Z,13.44
2023-03-31T08:59:33.392Z,13.42
2023-03-31T09:02:32.250Z,13.40
2023-03-31T09:05:11.425Z,13.55
2023-03-31T09:07:48.928Z,13.78
2023-03-31T09:10:34.145Z,13.89
2023-03-31T09:13:06.576Z,13.93
2023-03-31T09:15:41.069Z,13.90
2023-03-31T09:18:32.888Z,13.96
2023-03-31T09:21:08.307Z,13.71
2023-03-31T09:24:05.170Z,13.81
2023-03-31T09:26:34.577Z,13.84
2023-03-31T09:29:06.620Z,14.02
2023-03-31T09:31:33.551Z,13.71
2023-03-31T09:34:10.149Z,13.71
2023-03-31T09:36:36.625Z,13.80
2023-03-31T09:39:03.769Z,14.05
2023-03-31T09:41:31.842Z,14.11
2023-03-31T09:43:59.430Z,13.62
2023-03-31T09:46:35.663Z,13.87
2023-03-31T09:49:13.133Z,13.55
2023-03-31T09:51:44.445Z,13.64
2023-03-31T09:54:21.325Z,13.60
2023-03-31T09:56:53.544Z,13.22
2023-03-31T09:59:23.096Z,12.90
2023-03-31T10:01:53.375Z,12.52
2023-03-31T10:04:24.164Z,12.20
2023-03-31T10:06:54.751Z,11.93
2023-03-31T10:09:26.393Z,11.66
2023-03-31T10:11:59.262Z,11.71
2023-03-31T10:14:33.164Z,11.62
2023-03-31T10:17:05.256Z,11.66
2023-03-31T10:19:34.646Z,11.85
2023-03-31T10:22:15.292Z,12.17
2023-03-31T10:24:44.972Z,12.48
2023-03-31T10:27:31.564Z,12.71
2023-03-31T10:30:00.813Z,13.07
2023-03-31T10:32:29.853Z,13.07
2023-03-31T10:34:57.847Z,13.29
2023-03-31T10:37:28.489Z,13.28
2023-03-31T10:40:01.789Z,13.75
2023-03-31T10:42:28.849Z,14.16
2023-03-31T10:45:37.189Z,14.35
2023-03-31T10:48:04.910Z,14.61
2023-03-31T10:50:34.762Z,14.84
2023-03-31T10:53:07.340Z,15.03
2023-03-31T10:55:47.440Z,15.15
2023-03-31T10:59:02.053Z,15.19
2023-03-31T11:01:46.460Z,15.18
2023-03-31T11:04:43.959Z,15.41
2023-03-31T11:07:48.761Z,15.68
2023-03-31T11:10:42.251Z,15.55
2023-03-31T11:13:08.623Z,15.73
2023-03-31T11:15:55.536Z,15.64
2023-03-31T11:18:52.990Z,15.78
2023-03-31T11:21:27.950Z,15.78
2023-03-31T11:24:32.826Z,15.77
2023-03-31T11:27:03.105Z,15.67
2023-03-31T11:29:44.051Z,15.40
2023-03-31T11:32:52.093Z,15.87
2023-03-31T11:35:54.320Z,16.12
2023-03-31T11:38:22.607Z,15.90
2023-03-31T11:41:13.259Z,16.20
2023-03-31T11:43:45.109Z,16.24
2023-03-31T11:46:27.232Z,16.08
2023-03-31T11:49:03.990Z,16.00
2023-03-31T11:51:40.325Z,16.22
2023-03-31T11:54:12.390Z,16.22
2023-03-31T11:56:41.499Z,15.63
2023-03-31T11:59:14.747Z,15.41
2023-03-31T12:01:41.266Z,15.37
2023-03-31T12:04:21.589Z,15.40
2023-03-31T12:06:49.892Z,15.20
2023-03-31T12:09:25.913Z,15.25
2023-03-31T12:12:12.975Z,15.53
2023-03-31T12:15:13.257Z,15.68
2023-03-31T12:17:43.477Z,15.78
2023-03-31T12:20:29.794Z,15.91
2023-03-31T12:22:57.709Z,16.09
2023-03-31T12:25:26.578Z,16.33
2023-03-31T12:27:54.762Z,16.12
2023-03-31T12:30:42.897Z,16.16
2023-03-31T12:33:31.456Z,16.37
2023-03-31T12:36:10.027Z,16.49
2023-03-31T12:38:45.767Z,16.34
2023-03-31T12:41:40.891Z,16.14
2023-03-31T12:44:44.776Z,15.82
2023-03-31T12:47:33.521Z,15.63
2023-03-31T12:50:32.819Z,15.19
2023-03-31T12:53:36.684Z,14.82
2023-03-31T12:56:03.272Z,14.40
2023-03-31T12:58:32.949Z,13.84
2023-03-31T13:01:07.634Z,13.40
2023-03-31T13:03:34.575Z,13.02
2023-03-31T13:06:02.719Z,12.99
2023-03-31T13:09:03.538Z,13.09
2023-03-31T13:11:36.000Z,13.01
2023-03-31T13:14:06.568Z,13.14
2023-03-31T13:16:35.523Z,13.41
2023-03-31T13:19:02.268Z,13.59
2023-03-31T13:21:28.780Z,13.62
2023-03-31T13:24:00.364Z,13.65
2023-03-31T13:26:36.212Z,13.93
2023-03-31T13:29:19.976Z,14.10
2023-03-31T13:32:01.720Z,14.61
2023-03-31T13:34:35.676Z,14.60
2023-03-31T13:37:24.679Z,14.70
2023-03-31T13:40:29.819Z,14.92
2023-03-31T13:43:20.286Z,15.29
2023-03-31T13:45:58.775Z,15.04
2023-03-31T13:48:37.060Z,15.31
2023-03-31T13:51:54.343Z,15.18
2023-03-31T13:54:49.240Z,15.32
2023-03-31T13:57:28.404Z,15.11
2023-03-31T14:00:19.768Z,15.48
2023-03-31T14:03:12.526Z,15.70
2023-03-31T14:05:53.602Z,15.63
2023-03-31T14:08:33.651Z,15.87
2023-03-31T14:11:29.624Z,16.02
2023-03-31T14:14:00.954Z,15.93
2023-03-31T14:16:29.695Z,16.00
2023-03-31T14:19:16.049Z,15.98
2023-03-31T14:21:53.644Z,15.74
2023-03-31T14:24:33.312Z,15.88
2023-03-31T14:27:21.593Z,15.57
2023-03-31T14:30:29.647Z,15.52
2023-03-31T14:33:17.946Z,15.02
2023-03-31T14:36:19.215Z,15.04
2023-03-31T14:38:46.103Z,14.17
2023-03-31T14:41:21.153Z,13.46
2023-03-31T14:43:51.079Z,13.78
2023-03-31T14:46:24.422Z,13.79
2023-03-31T14:48:52.004Z,14.15
2023-03-31T14:51:26.872Z,14.18
2023-03-31T14:53:58.071Z,14.59
2023-03-31T14:56:37.985Z,14.64
2023-03-31T14:59:07.284Z,14.97
2023-03-31T15:01:37.656Z,14.87
2023-03-31T15:04:12.706Z,15.07
2023-03-31T15:06:42.206Z,15.27
2023-03-31T15:09:18.383Z,15.09
2023-03-31T15:11:47.156Z,15.11
2023-03-31T15:14:13.672Z,15.11
2023-03-31T15:16:45.204Z,15.18
2023-03-31T15:19:17.486Z,15.27
2023-03-31T15:21:45.571Z,15.35
2023-03-31T15:24:13.931Z,14.98
2023-03-31T15:26:51.163Z,15.21
2023-03-31T15:29:20.182Z,15.19
2023-03-31T15:31:48.176Z,15.41
2023-03-31T15:34:36.690Z,15.37
2023-03-31T15:37:03.765Z,15.19
2023-03-31T15:39:33.173Z,15.10
2023-03-31T15:42:02.518Z,14.96
2023-03-31T15:44:46.774Z,15.18
2023-03-31T15:47:21.669Z,15.25
2023-03-31T15:49:54.498Z,15.00
2023-03-31T15:52:24.755Z,14.93
2023-03-31T15:54:51.685Z,14.73
2023-03-31T15:57:19.715Z,14.59
2023-03-31T15:59:56.309Z,14.76
2023-03-31T16:02:26.370Z,14.76
2023-03-31T16:04:59.340Z,14.63
2023-03-31T16:07:34.444Z,14.98
2023-03-31T16:10:10.146Z,14.74
2023-03-31T16:12:43.516Z,14.86
2023-03-31T16:15:14.119Z,14.63
2023-03-31T16:18:15.017Z,14.50
2023-03-31T16:20:52.546Z,14.37
2023-03-31T16:23:25.319Z,14.26
2023-03-31T16:25:52.514Z,14.07
2023-03-31T16:28:26.218Z,14.05
2023-03-31T16:30:54.564Z,14.24
2023-03-31T16:33:25.850Z,14.17
2023-03-31T16:35:56.247Z,14.22
2023-03-31T16:38:25.507Z,14.19
2023-03-31T16:40:56.936Z,14.08
2023-03-31T16:43:34.326Z,13.98
2023-03-31T16:46:04.017Z,14.05
2023-03-31T16:48:34.708Z,14.19
2023-03-31T16:51:01.573Z,14.15
2023-03-31T16:53:31.117Z,14.00
2023-03-31T16:55:57.959Z,14.16
2023-03-31T16:58:24.807Z,14.05
2023-03-31T17:00:51.997Z,14.04
2023-03-31T17:03:19.372Z,13.89
2023-03-31T17:05:48.159Z,13.92
2023-03-31T17:08:15.985Z,13.97
2023-03-31T17:10:50.041Z,13.95
2023-03-31T17:13:16.531Z,14.07
2023-03-31T17:15:42.917Z,13.87
2023-03-31T17:18:09.421Z,13.89
2023-03-31T17:20:36.234Z,14.02
2023-03-31T17:23:02.922Z,14.07
2023-03-31T17:25:29.409Z,14.05
2023-03-31T17:27:56.286Z,14.02
2023-03-31T17:30:23.459Z,14.07
2023-03-31T17:32:51.544Z,13.72
2023-03-31T17:35:21.588Z,13.58
2023-03-31T17:37:53.784Z,13.59
2023-03-31T17:40:21.691Z,13.38
2023-03-31T17:42:48.136Z,13.16
2023-03-31T17:45:14.696Z,12.90
2023-03-31T17:47:41.985Z,12.91
2023-03-31T17:50:09.590Z,12.92
2023-03-31T17:52:36.512Z,12.77
2023-03-31T17:55:04.243Z,12.78
2023-03-31T17:57:31.853Z,12.76
2023-03-31T17:59:58.511Z,12.78
2023-03-31T18:02:25.011Z,12.66
2023-03-31T18:04:51.538Z,12.79
2023-03-31T18:07:18.437Z,12.89
2023-03-31T18:09:45.502Z,12.88
2023-03-31T18:12:11.954Z,12.73
2023-03-31T18:14:38.405Z,12.80
2023-03-31T18:17:04.988Z,12.70
2023-03-31T18:19:31.906Z,12.53
2023-03-31T18:21:58.339Z,12.42
2023-03-31T18:24:24.887Z,12.53
2023-03-31T18:26:51.511Z,12.65
2023-03-31T18:29:17.860Z,12.85
2023-03-31T18:31:44.318Z,12.70
2023-03-31T18:34:10.815Z,12.88
2023-03-31T18:36:37.329Z,12.78
2023-03-31T18:39:04.145Z,12.68
2023-03-31T18:41:30.525Z,12.46
2023-03-31T18:43:56.939Z,12.40
2023-03-31T18:46:23.403Z,12.25
2023-03-31T18:48:50.263Z,12.16
2023-03-31T18:51:16.858Z,12.29
2023-03-31T18:53:43.308Z,12.41
2023-03-31T18:56:09.765Z,12.49
2023-03-31T18:58:37.212Z,12.28
2023-03-31T19:01:03.636Z,12.24
2023-03-31T19:03:30.748Z,12.24
2023-03-31T19:06:05.408Z,12.25
2023-03-31T19:08:32.454Z,12.05
2023-03-31T19:11:09.626Z,12.07
2023-03-31T19:13:36.786Z,12.21
2023-03-31T19:16:03.240Z,12.28
2023-03-31T19:18:29.855Z,12.30
2023-03-31T19:20:58.506Z,12.13
2023-03-31T19:23:25.100Z,12.09
2023-03-31T19:25:53.736Z,12.14
2023-03-31T19:28:21.620Z,12.30
2023-03-31T19:30:52.997Z,12.22
2023-03-31T19:33:19.942Z,12.30
2023-03-31T19:35:48.477Z,12.26
2023-03-31T19:38:15.342Z,12.35
2023-03-31T19:40:42.895Z,12.31
2023-03-31T19:43:19.253Z,12.20
2023-03-31T19:45:47.447Z,12.29
2023-03-31T19:48:14.502Z,12.20
2023-03-31T19:50:41.075Z,12.20
2023-03-31T19:53:07.521Z,12.35
2023-03-31T19:55:37.451Z,12.24
2023-03-31T19:58:03.970Z,12.25
2023-03-31T20:00:30.451Z,12.08
2023-03-31T20:02:57.012Z,11.95
2023-03-31T20:05:23.661Z,12.10
2023-03-31T20:07:50.337Z,11.97
2023-03-31T20:10:16.808Z,11.96
2023-03-31T20:12:43.363Z,12.03
2023-03-31T20:15:09.759Z,11.84
2023-03-31T20:17:36.199Z,12.00
2023-03-31T20:20:03.062Z,12.04
2023-03-31T20:22:29.416Z,11.89
2023-03-31T20:24:56.169Z,11.90
2023-03-31T20:27:26.306Z,11.86
2023-03-31T20:29:53.105Z,11.82
2023-03-31T20:32:19.463Z,11.90
2023-03-31T20:34:45.812Z,11.76
2023-03-31T20:37:15.271Z,11.87
2023-03-31T20:39:42.283Z,12.09
2023-03-31T20:42:08.754Z,12.02
2023-03-31T20:44:35.170Z,11.85
2023-03-31T20:47:01.730Z,11.91
2023-03-31T20:49:28.218Z,11.90
2023-03-31T20:51:54.763Z,11.86
2023-03-31T20:54:21.532Z,11.67
2023-03-31T20:56:49.523Z,11.86
2023-03-31T20:59:16.049Z,11.86
2023-03-31T21:01:42.927Z,11.78
2023-03-31T21:04:11.016Z,11.83
2023-03-31T21:06:40.512Z,11.86
2023-03-31T21:09:07.742Z,11.96
2023-03-31T21:11:34.547Z,11.98
2023-03-31T21:14:01.822Z,11.81
2023-03-31T21:16:28.239Z,11.79
2023-03-31T21:18:55.083Z,11.84
2023-03-31T21:21:24.337Z,11.88
2023-03-31T21:23:51.507Z,11.82
2023-03-31T21:26:18.254Z,11.98
2023-03-31T21:28:45.447Z,11.86
2023-03-31T21:31:17.913Z,11.88
2023-03-31T21:33:46.265Z,11.93
2023-03-31T21:36:16.290Z,12.05
2023-03-31T21:38:43.489Z,11.99
2023-03-31T21:41:12.584Z,11.88
2023-03-31T21:43:39.211Z,11.71
2023-03-31T21:46:06.803Z,11.85
2023-03-31T21:48:34.113Z,11.99
2023-03-31T21:51:02.756Z,11.99
2023-03-31T21:53:30.983Z,11.85
2023-03-31T21:55:58.627Z,11.85
2023-03-31T21:58:28.790Z,11.95
2023-03-31T22:00:56.445Z,11.87
2023-03-31T22:03:27.419Z,11.94
2023-03-31T22:05:58.592Z,11.90
2023-03-31T22:08:27.025Z,11.95
2023-03-31T22:10:54.610Z,11.83
2023-03-31T22:13:22.272Z,11.91
2023-03-31T22:15:49.074Z,11.88
2023-03-31T22:18:16.984Z,11.77
2023-03-31T22:20:43.571Z,11.93
2023-03-31T22:23:10.050Z,11.82
2023-03-31T22:25:36.494Z,11.90
2023-03-31T22:28:05.961Z,11.87
2023-03-31T22:30:33.540Z,11.96
2023-03-31T22:32:59.996Z,11.89
2023-03-31T22:35:26.670Z,11.85
2023-03-31T22:37:53.314Z,11.85
2023-03-31T22:40:19.708Z,11.91
2023-03-31T22:42:46.248Z,11.99
2023-03-31T22:45:12.714Z,11.86
2023-03-31T22:47:42.093Z,11.73
2023-03-31T22:50:10.252Z,11.70
2023-03-31T22:52:36.868Z,11.82
2023-03-31T22:55:04.280Z,11.89
2023-03-31T22:57:31.143Z,11.81
2023-03-31T22:59:57.570Z,11.85
2023-03-31T23:02:24.137Z,11.81
2023-03-31T23:04:50.609Z,11.78
2023-03-31T23:07:17.878Z,11.97
2023-03-31T23:09:44.259Z,11.93
2023-03-31T23:12:10.823Z,11.83
2023-03-31T23:14:37.209Z,11.81
2023-03-31T23:17:03.824Z,11.75
2023-03-31T23:19:30.651Z,11.73
2023-03-31T23:21:58.300Z,11.71
2023-03-31T23:24:24.987Z,11.72
2023-03-31T23:26:52.337Z,11.77
2023-03-31T23:29:18.724Z,11.75
2023-03-31T23:31:45.126Z,11.84
2023-03-31T23:34:13.847Z,11.70
2023-03-31T23:36:40.385Z,11.84
2023-03-31T23:39:06.848Z,11.94
2023-03-31T23:41:33.472Z,11.85
2023-03-31T23:44:00.092Z,11.90
2023-03-31T23:46:26.678Z,11.79
2023-03-31T23:48:53.859Z,11.75
2023-03-31T23:51:20.406Z,11.63
2023-03-31T23:53:47.355Z,11.79
2023-03-31T23:56:14.246Z,11.79
2023-03-31T23:58:42.851Z,11.85
